Pagrindinis puslapis
METAR-TAF:

METAR-TAF

Oro uostai :

Juigalpa, Nikaragva

platuma: 12-06N, ilguma: 085-22W, Aukštis: 90 m

Dabartinis oras

Ataskaita buvo paskelbta 1 valandą ir 9 minutes, ne 23:00 UTC
Ramus vėjas
Temperatūra 26°C
Drėgmė 89%
Slėgis 1010 hPa
Matomumas 10 km arba daugiau
Su prošvaistėmis ne aukštis 2000 ft, Liūtiniai kamuoliniai debesys.
perkūnija

METAR: MNJU 222300Z 00000KT 9999 TS BKN020CB 26/24 Q1010 CB 4/C

Laikas: 18:09 (00:09 UTC)


TAF: trūkstamas

Orai ataskaitas ir orų prognozės (METAR, TAF).

turimą stotys yra geltonos ir raudonos taškus žemėlapyje.

Perkelti pele per norėdami pamatyti stoties vardą.

Tada spustelėkite, norėdami matyti oro stebėjimo ir prognozės.

Norėdami pakeisti žemėlapį: spustelėkite ant žalios mygtukų su juodo kryžiaus žemyn,; žalią mygtuką su brūkšneliu, jei norite nutolinti; arba žalių rodyklių gretimoms žemėlapius.


METAR-TAF: